Orange, New Jersey
Current Conditions -  °F | °C
As of 4:51 PM on Thursday 23 Oct 2014 (Local Time) from KEWR Reporting Station
Broken Clouds Broken Clouds  
Wind Chill: 54°   Ceiling: 2200
Heat Index: 54°   Visibility: 10mi
Dew Point: 49°   Wind: 20mph
Humidity: 83%   Direction: 330°NNW
Pressure: 29.72"   Gusts: 25mph
Location:  40.77°N, 74.23°W
Report Text: KEWR 232051Z 33017G22KT 10SM SCT015 BKN022 BKN040 12/09 A2972 RMK AO2 RAE07 SLP062 P0000 60002 T01220094 53001 $
Loading
Personal Weather Stations






























Interactive Weather Map New forecast layout! Learn more

10-Day Weather Forecast

Advertisements
Track Severe Weather on mobile